Time;durP1;ratioP1;P1;durP2;ratioP2;P2;SDS_P1;SDS_P2;PMS_P1;PMS_P2;Temp;Humidity;BMP_temperature;BMP_pressure;BME280_temperature;BME280_humidity;BME280_pressure;Samples;Min_cycle;Max_cycle;Signal;HPM_P1;HPM_P2
2023/03/11 00:00:17;;;;;;;6.97;6.67;;;;;;;1.74;82.43;95606.41;5033839;28;20535;-62
2023/03/11 00:02:45;;;;;;;7.43;7.03;;;;;;;1.63;83.54;95608.63;5034081;28;20631;-61
2023/03/11 00:05:17;;;;;;;7.70;7.33;;;;;;;1.63;82.87;95610.41;5032722;28;20190;-63
2023/03/11 00:07:43;;;;;;;6.27;5.87;;;;;;;1.68;83.46;95618.34;5032677;28;20202;-61
2023/03/11 00:10:14;;;;;;;5.40;5.20;;;;;;;1.58;82.91;95608.44;5031404;28;20182;-63
2023/03/11 00:12:39;;;;;;;4.20;3.90;;;;;;;1.51;83.49;95623.13;5033225;28;20175;-61
2023/03/11 00:15:05;;;;;;;4.00;3.80;;;;;;;1.38;84.15;95624.91;5033376;28;20270;-61
2023/03/11 00:17:30;;;;;;;5.00;4.80;;;;;;;1.36;84.42;95638.00;5032895;28;20198;-61
2023/03/11 00:19:56;;;;;;;3.67;3.57;;;;;;;1.47;84.77;95628.88;5033058;28;20210;-61
2023/03/11 00:22:21;;;;;;;4.60;4.30;;;;;;;1.60;84.23;95632.28;5033187;28;20167;-63
2023/03/11 00:24:47;;;;;;;3.90;3.70;;;;;;;1.49;84.32;95642.41;5032829;28;20210;-61
2023/03/11 00:27:12;;;;;;;4.17;3.97;;;;;;;1.53;86.26;95648.75;5014946;28;20178;-61
2023/03/11 00:29:38;;;;;;;4.60;4.40;;;;;;;1.47;86.28;95641.78;5033414;28;20341;-61
2023/03/11 00:32:03;;;;;;;4.37;4.07;;;;;;;1.50;85.90;95637.03;5032899;28;20211;-62
2023/03/11 00:34:29;;;;;;;4.40;4.20;;;;;;;1.42;87.10;95641.59;5032719;28;20190;-63
2023/03/11 00:36:54;;;;;;;7.50;7.10;;;;;;;1.47;86.65;95634.03;5032061;28;20217;-63
2023/03/11 00:39:20;;;;;;;5.43;5.13;;;;;;;1.49;87.19;95638.03;5032345;28;20210;-61
2023/03/11 00:41:45;;;;;;;5.40;5.00;;;;;;;1.54;87.71;95633.06;5032606;28;20221;-62
2023/03/11 00:44:11;;;;;;;4.90;4.60;;;;;;;1.54;87.49;95638.22;5045063;28;20234;-62
2023/03/11 00:46:36;;;;;;;4.37;4.17;;;;;;;1.55;87.86;95646.78;5052667;28;20186;-61
2023/03/11 00:49:02;;;;;;;4.30;4.10;;;;;;;1.53;87.66;95648.75;5034163;28;20209;-61
2023/03/11 00:51:28;;;;;;;4.80;4.50;;;;;;;1.51;87.89;95655.88;5052252;28;20201;-63
2023/03/11 00:53:53;;;;;;;4.50;4.10;;;;;;;1.50;89.31;95652.53;5052007;28;20182;-63
2023/03/11 00:56:19;;;;;;;3.83;3.63;;;;;;;1.63;88.19;95654.31;5052464;28;20206;-61
2023/03/11 00:58:45;;;;;;;4.40;4.20;;;;;;;1.67;88.21;95658.09;5052146;28;20701;-62
2023/03/11 01:01:15;;;;;;;4.20;4.00;;;;;;;1.48;88.65;95641.59;5052331;28;20170;-61
2023/03/11 01:03:41;;;;;;;4.50;4.20;;;;;;;1.58;89.42;95651.53;5052111;28;20178;-62
2023/03/11 01:06:07;;;;;;;4.00;3.80;;;;;;;1.46;89.36;95666.81;5054457;28;20220;-61
2023/03/11 01:08:33;;;;;;;4.13;3.93;;;;;;;1.44;89.78;95650.75;5056249;28;20202;-61
2023/03/11 01:10:59;;;;;;;4.13;3.93;;;;;;;1.37;90.66;95649.94;5055037;28;20205;-61
2023/03/11 01:13:27;;;;;;;4.30;4.10;;;;;;;1.34;90.88;95644.38;5052406;28;20185;-61
2023/03/11 01:15:52;;;;;;;4.50;4.30;;;;;;;1.35;91.61;95640.78;5052165;28;20166;-61
2023/03/11 01:18:19;;;;;;;4.43;4.13;;;;;;;1.37;91.90;95641.38;5052111;28;20236;-61
2023/03/11 01:20:45;;;;;;;4.20;4.00;;;;;;;1.37;91.88;95643.97;5052116;28;20173;-63
2023/03/11 01:23:11;;;;;;;4.73;4.47;;;;;;;1.51;92.65;95640.38;5052068;28;20174;-60
2023/03/11 01:25:37;;;;;;;5.30;4.80;;;;;;;1.42;92.79;95649.34;5052379;28;20194;-60
2023/03/11 01:28:04;;;;;;;5.00;4.60;;;;;;;1.47;92.17;95637.41;5051600;28;20272;-61
2023/03/11 01:30:29;;;;;;;4.93;4.47;;;;;;;1.23;90.46;95646.53;5051728;28;20186;-62
2023/03/11 01:32:57;;;;;;;4.30;4.10;;;;;;;1.37;90.78;95659.47;5052268;28;20189;-61
2023/03/11 01:35:24;;;;;;;4.30;4.10;;;;;;;1.27;91.05;95654.69;5051852;28;20215;-63
2023/03/11 01:37:51;;;;;;;5.17;4.67;;;;;;;1.26;89.55;95666.00;5051361;28;20297;-61
2023/03/11 01:40:38;;;;;;;4.40;4.00;;;;;;;1.19;89.07;95678.09;5034155;28;20731;-61
2023/03/11 01:43:06;;;;;;;5.37;4.70;;;;;;;1.03;89.83;95691.34;5049348;28;20240;-63
2023/03/11 01:45:58;;;;;;;4.57;4.27;;;;;;;0.97;89.08;95694.69;5052068;28;20185;-61
2023/03/11 01:48:23;;;;;;;4.60;4.30;;;;;;;1.08;88.28;95681.22;5020904;28;20630;-60
2023/03/11 01:50:49;;;;;;;4.53;4.33;;;;;;;1.14;88.75;95696.72;5051885;28;20297;-61
2023/03/11 01:53:16;;;;;;;4.20;4.00;;;;;;;1.01;88.54;95694.09;5051895;28;20231;-62
2023/03/11 01:55:43;;;;;;;4.87;4.47;;;;;;;0.99;88.31;95685.00;5051841;28;20622;-62
2023/03/11 01:58:15;;;;;;;4.80;4.50;;;;;;;0.83;89.13;95683.56;5051441;28;20654;-62
2023/03/11 02:00:41;;;;;;;4.90;4.70;;;;;;;0.95;88.87;95666.50;5051838;28;20174;-63
2023/03/11 02:03:40;;;;;;;4.60;4.30;;;;;;;0.88;88.63;95680.38;5051951;28;20261;-63
2023/03/11 02:06:18;;;;;;;4.63;4.20;;;;;;;0.80;89.03;95683.91;5006954;28;20717;-60
2023/03/11 02:08:44;;;;;;;4.43;4.20;;;;;;;0.83;88.29;95694.66;5041262;28;20679;-61
2023/03/11 02:11:17;;;;;;;4.90;4.60;;;;;;;0.88;88.11;95695.88;5050001;28;20193;-63
2023/03/11 02:13:44;;;;;;;4.50;4.27;;;;;;;0.81;88.71;95691.47;5054944;28;20311;-61
2023/03/11 02:16:12;;;;;;;4.83;4.47;;;;;;;0.93;88.11;95688.34;5054866;28;20182;-61
2023/03/11 02:18:39;;;;;;;4.60;4.20;;;;;;;0.82;88.36;95716.28;5039387;28;20614;-61
2023/03/11 02:21:20;;;;;;;4.93;4.63;;;;;;;0.93;87.90;95708.97;5059423;22;20288;-61
2023/03/11 02:23:58;;;;;;;4.83;4.53;;;;;;;0.95;86.60;95712.16;5034432;28;20714;-61
2023/03/11 02:26:34;;;;;;;4.50;4.03;;;;;;;0.91;87.72;95706.56;5034341;28;20263;-60
2023/03/11 02:29:03;;;;;;;4.50;4.30;;;;;;;0.89;87.22;95721.47;5017534;28;20210;-61
2023/03/11 02:31:30;;;;;;;5.67;5.27;;;;;;;0.77;86.94;95708.31;5014321;28;20184;-61
2023/03/11 02:33:58;;;;;;;7.70;5.13;;;;;;;0.64;86.53;95716.00;5013641;28;20259;-60
2023/03/11 02:36:33;;;;;;;5.07;4.63;;;;;;;0.54;85.52;95701.84;5014566;28;20172;-60
2023/03/11 02:38:59;;;;;;;5.13;4.73;;;;;;;0.52;86.30;95722.66;5014197;28;20229;-60
2023/03/11 02:41:26;;;;;;;4.33;4.13;;;;;;;0.35;85.91;95708.50;5014568;28;20172;-60
2023/03/11 02:43:52;;;;;;;5.07;4.77;;;;;;;0.30;85.94;95708.25;5014085;28;20163;-61
2023/03/11 02:46:19;;;;;;;5.37;5.07;;;;;;;0.31;86.32;95702.13;5014071;28;20596;-60
2023/03/11 02:48:45;;;;;;;5.10;4.80;;;;;;;0.23;86.83;95702.25;5013958;28;20195;-60
2023/03/11 02:51:11;;;;;;;5.83;4.80;;;;;;;0.23;86.10;95703.06;5014173;28;20179;-60
2023/03/11 02:53:43;;;;;;;5.10;4.80;;;;;;;0.21;85.69;95706.84;5013944;28;20179;-60
2023/03/11 02:56:09;;;;;;;4.37;4.03;;;;;;;0.09;85.13;95698.03;5014103;28;20176;-60
2023/03/11 02:58:34;;;;;;;4.70;4.40;;;;;;;0.12;85.44;95689.91;5013715;28;20213;-60
2023/03/11 03:01:00;;;;;;;4.43;4.17;;;;;;;0.12;85.61;95700.22;5013772;28;20175;-60
2023/03/11 03:03:25;;;;;;;4.17;3.97;;;;;;;0.01;86.78;95691.22;5013637;28;20194;-60
2023/03/11 03:05:51;;;;;;;4.33;3.97;;;;;;;-0.07;86.85;95699.09;5013839;28;20175;-61
2023/03/11 03:08:16;;;;;;;6.77;4.23;;;;;;;-0.07;87.58;95707.63;5013407;28;20277;-61
2023/03/11 03:10:41;;;;;;;4.80;4.50;;;;;;;-0.09;87.62;95726.81;5011830;28;20187;-61
2023/03/11 03:13:07;;;;;;;4.47;4.17;;;;;;;-0.12;86.78;95722.06;4995833;28;20671;-61
2023/03/11 03:15:33;;;;;;;5.50;5.20;;;;;;;-0.25;86.19;95721.94;5013246;28;20274;-61
2023/03/11 03:17:58;;;;;;;4.63;4.33;;;;;;;-0.17;86.32;95727.72;5013747;28;20211;-61
2023/03/11 03:20:25;;;;;;;4.67;4.27;;;;;;;-0.17;86.37;95740.59;5013747;28;20183;-62
2023/03/11 03:22:51;;;;;;;4.60;4.30;;;;;;;-0.16;86.41;95738.84;5032195;28;20669;-61
2023/03/11 03:25:16;;;;;;;4.27;3.90;;;;;;;-0.16;87.48;95734.47;5034033;28;20182;-61
2023/03/11 03:27:42;;;;;;;4.43;3.97;;;;;;;-0.19;87.12;95734.88;5033718;28;20209;-61
2023/03/11 03:30:08;;;;;;;5.73;4.60;;;;;;;-0.26;86.18;95733.22;5033437;28;20285;-61
2023/03/11 03:32:34;;;;;;;4.87;4.40;;;;;;;-0.37;86.18;95721.63;5033601;28;20586;-60
2023/03/11 03:35:00;;;;;;;4.07;3.87;;;;;;;-0.39;86.08;95723.59;5033023;28;20170;-61
2023/03/11 03:37:26;;;;;;;4.70;4.40;;;;;;;-0.44;86.42;95721.56;5033457;28;20178;-61
2023/03/11 03:39:52;;;;;;;4.43;4.13;;;;;;;-0.42;86.43;95722.19;5033353;28;20298;-61
2023/03/11 03:42:24;;;;;;;4.30;4.10;;;;;;;-0.48;86.95;95727.28;5033285;28;20655;-61
2023/03/11 03:44:51;;;;;;;4.37;4.17;;;;;;;-0.46;87.48;95722.75;5094081;22;20303;-61
2023/03/11 03:47:18;;;;;;;4.63;3.97;;;;;;;-0.49;87.65;95730.81;5044322;23;20723;-61
2023/03/11 03:49:43;;;;;;;4.57;4.27;;;;;;;-0.45;87.71;95732.06;5013596;28;20230;-61
2023/03/11 03:52:09;;;;;;;5.13;4.70;;;;;;;-0.48;88.31;95737.56;5013319;28;20195;-61
2023/03/11 03:54:35;;;;;;;9.37;5.37;;;;;;;-0.60;88.69;95744.16;5013219;28;20538;-61
2023/03/11 03:57:01;;;;;;;5.67;5.33;;;;;;;-0.55;89.47;95741.84;5013303;28;20175;-61
2023/03/11 03:59:27;;;;;;;7.30;6.70;;;;;;;-0.52;88.66;95749.22;5013338;28;20235;-61
2023/03/11 04:01:52;;;;;;;6.63;6.13;;;;;;;-0.69;89.36;95758.13;5012713;28;20179;-61
2023/03/11 04:04:18;;;;;;;6.30;5.70;;;;;;;-0.73;89.94;95770.56;5013195;28;20175;-61
2023/03/11 04:06:45;;;;;;;5.50;5.07;;;;;;;-0.72;89.61;95763.63;5013318;28;20187;-61
2023/03/11 04:09:11;;;;;;;6.47;5.50;;;;;;;-0.71;90.19;95773.75;5011164;28;20564;-61
2023/03/11 04:11:37;;;;;;;5.33;4.93;;;;;;;-0.72;89.87;95786.78;5013405;28;20183;-61
2023/03/11 04:14:03;;;;;;;7.30;5.60;;;;;;;-0.66;90.03;95784.28;5012641;28;20215;-62
2023/03/11 04:16:30;;;;;;;4.83;4.33;;;;;;;-0.58;89.92;95784.19;5013033;28;20245;-61
2023/03/11 04:18:55;;;;;;;4.47;4.17;;;;;;;-0.46;88.89;95784.50;5013421;28;20568;-61
2023/03/11 04:21:20;;;;;;;4.70;4.40;;;;;;;-0.63;90.02;95780.56;5013227;28;20179;-61
2023/03/11 04:23:46;;;;;;;4.73;4.37;;;;;;;-0.71;90.68;95770.38;5013145;28;20183;-59
2023/03/11 04:26:12;;;;;;;4.60;4.30;;;;;;;-0.76;90.79;95772.69;5013074;28;20670;-62
2023/03/11 04:28:37;;;;;;;4.40;4.10;;;;;;;-0.84;91.92;95764.09;5012956;28;20211;-61
2023/03/11 04:31:03;;;;;;;4.73;4.33;;;;;;;-0.84;91.85;95764.09;5013236;28;20172;-60
2023/03/11 04:33:29;;;;;;;5.77;4.63;;;;;;;-0.85;92.27;95769.44;5012988;28;20171;-60
2023/03/11 04:35:54;;;;;;;4.20;3.90;;;;;;;-0.81;92.63;95772.44;5012476;28;20187;-60
2023/03/11 04:38:19;;;;;;;4.60;4.40;;;;;;;-0.75;92.69;95779.44;5012552;28;20214;-60
2023/03/11 04:40:45;;;;;;;4.60;4.40;;;;;;;-0.82;92.97;95776.00;5012571;28;20183;-62
2023/03/11 04:43:10;;;;;;;4.87;4.57;;;;;;;-0.77;93.09;95777.03;5013136;28;20187;-62
2023/03/11 04:45:43;;;;;;;5.27;4.77;;;;;;;-0.74;92.86;95775.91;5013246;28;20187;-60
2023/03/11 04:48:09;;;;;;;5.83;5.30;;;;;;;-0.82;92.98;95773.41;5040146;28;20314;-58
2023/03/11 04:50:35;;;;;;;5.20;4.80;;;;;;;-0.88;93.61;95765.44;5052419;28;20857;-62
2023/03/11 04:53:01;;;;;;;5.17;4.77;;;;;;;-0.87;93.38;95769.63;5052131;28;20515;-61
2023/03/11 04:55:27;;;;;;;5.17;4.77;;;;;;;-0.83;93.20;95770.03;5052606;28;20569;-61
2023/03/11 04:57:54;;;;;;;4.77;4.47;;;;;;;-0.84;92.99;95776.97;5052400;28;20212;-61
2023/03/11 05:00:23;;;;;;;4.83;4.53;;;;;;;-0.79;93.57;95776.44;5052882;28;20537;-61
2023/03/11 05:02:49;;;;;;;5.10;4.80;;;;;;;-0.94;93.43;95778.22;5052893;28;20558;-61
2023/03/11 05:05:15;;;;;;;4.47;4.17;;;;;;;-0.87;93.74;95784.25;5161111;22;20245;-61
2023/03/11 05:07:40;;;;;;;4.20;3.90;;;;;;;-0.87;94.08;95782.47;5010922;28;20207;-59
2023/03/11 05:10:06;;;;;;;4.70;4.30;;;;;;;-0.89;94.36;95779.28;5012278;28;20674;-61
2023/03/11 05:12:32;;;;;;;4.33;3.70;;;;;;;-0.91;94.04;95786.41;5011825;28;20551;-60
2023/03/11 05:14:57;;;;;;;8.30;4.73;;;;;;;-0.88;94.24;95786.03;4996197;28;20179;-61
2023/03/11 05:17:23;;;;;;;4.87;4.50;;;;;;;-0.96;94.74;95790.47;5004748;28;20223;-61
2023/03/11 05:19:50;;;;;;;5.23;4.43;;;;;;;-0.95;94.88;95795.44;4993149;28;20176;-62
2023/03/11 05:22:15;;;;;;;8.57;5.20;;;;;;;-1.02;95.25;95794.56;4993123;28;20184;-61
2023/03/11 05:24:41;;;;;;;5.13;4.80;;;;;;;-1.04;95.51;95796.50;4993795;28;20183;-61
2023/03/11 05:27:06;;;;;;;6.57;5.03;;;;;;;-0.99;95.54;95796.78;5012210;28;20175;-61
2023/03/11 05:29:32;;;;;;;6.77;5.40;;;;;;;-1.01;95.60;95797.94;5012369;28;20203;-61
2023/03/11 05:31:57;;;;;;;4.97;4.57;;;;;;;-1.16;95.89;95803.06;5012262;28;20528;-61
2023/03/11 05:34:23;;;;;;;5.73;5.27;;;;;;;-1.08;96.49;95805.56;4995545;28;20199;-61
2023/03/11 05:36:48;;;;;;;6.37;5.87;;;;;;;-1.05;95.40;95800.06;5011732;28;20186;-61
2023/03/11 05:39:14;;;;;;;5.63;4.73;;;;;;;-1.06;95.76;95805.41;5012204;28;20207;-61
2023/03/11 05:41:39;;;;;;;5.77;5.37;;;;;;;-1.10;95.71;95806.72;5006585;28;20989;-62
2023/03/11 05:44:05;;;;;;;5.83;4.70;;;;;;;-1.11;96.14;95813.63;5002353;28;20543;-62
2023/03/11 05:46:31;;;;;;;6.97;4.83;;;;;;;-1.13;95.78;95817.34;5012339;28;20203;-62
2023/03/11 05:48:58;;;;;;;5.30;5.00;;;;;;;-1.13;96.03;95802.72;5002803;28;20216;-61
2023/03/11 05:51:24;;;;;;;6.10;5.60;;;;;;;-1.10;96.32;95804.94;5007198;28;20180;-62
2023/03/11 05:53:49;;;;;;;5.37;4.90;;;;;;;-1.07;95.97;95798.66;5015665;28;20550;-62
2023/03/11 05:56:19;;;;;;;4.83;4.47;;;;;;;-1.13;96.40;95807.88;5015262;28;20198;-62
2023/03/11 05:58:45;;;;;;;8.77;3.87;;;;;;;-1.06;96.54;95806.16;5007058;28;20744;-61
2023/03/11 06:01:12;;;;;;;5.17;4.13;;;;;;;-1.00;95.66;95808.03;4996506;28;20287;-62
2023/03/11 06:03:39;;;;;;;6.63;4.27;;;;;;;-1.02;96.36;95809.19;5011745;28;20238;-60
2023/03/11 06:06:07;;;;;;;4.53;4.13;;;;;;;-0.94;95.98;95819.38;5042507;28;20646;-62
2023/03/11 06:08:36;;;;;;;4.97;4.53;;;;;;;-0.99;95.24;95813.97;5045585;28;20229;-62
2023/03/11 06:11:06;;;;;;;6.27;5.27;;;;;;;-1.00;95.80;95818.31;5036653;28;20194;-62
2023/03/11 06:13:32;;;;;;;6.97;4.80;;;;;;;-0.93;95.13;95826.91;5044344;28;20217;-62
2023/03/11 06:15:57;;;;;;;4.70;4.40;;;;;;;-0.80;94.99;95825.50;5054972;28;21937;-61
2023/03/11 06:18:25;;;;;;;7.23;5.20;;;;;;;-0.56;93.88;95820.03;5049357;28;20545;-62
2023/03/11 06:20:51;;;;;;;4.40;4.10;;;;;;;-0.48;93.62;95828.44;5044432;28;20335;-61
2023/03/11 06:23:53;;;;;;;4.67;3.80;;;;;;;-0.25;92.11;95824.91;5054726;28;20206;-61
2023/03/11 06:28:52;;;;;;;5.00;4.03;;;;;;;-0.01;90.35;95824.56;5073013;28;20232;-62
2023/03/11 06:31:26;;;;;;;5.13;3.90;;;;;;;-0.13;89.78;95820.88;5075256;28;20184;-61
2023/03/11 06:33:54;;;;;;;5.27;4.37;;;;;;;-0.11;90.13;95832.56;5074165;28;20185;-62
2023/03/11 06:36:20;;;;;;;4.73;4.23;;;;;;;0.03;89.49;95828.34;5075147;28;20165;-62
2023/03/11 06:38:47;;;;;;;6.73;4.53;;;;;;;0.15;88.77;95837.19;5075395;28;20628;-61
2023/03/11 06:41:12;;;;;;;4.10;3.90;;;;;;;0.21;87.97;95845.94;5074735;28;20231;-62
2023/03/11 06:43:38;;;;;;;8.97;4.40;;;;;;;0.21;87.26;95851.09;5075230;28;20174;-60
2023/03/11 06:46:22;;;;;;;5.60;5.00;;;;;;;0.24;87.02;95853.28;5056573;28;20185;-61
2023/03/11 06:48:51;;;;;;;4.30;4.10;;;;;;;0.30;86.91;95870.59;5074968;28;20201;-61
2023/03/11 06:51:17;;;;;;;5.80;5.30;;;;;;;0.18;86.66;95869.50;5074826;28;20367;-61
2023/03/11 06:53:46;;;;;;;6.03;5.43;;;;;;;0.31;85.22;95885.06;5074742;28;20181;-61
2023/03/11 06:56:13;;;;;;;6.20;5.57;;;;;;;0.19;86.59;95877.03;5074395;28;20184;-61
2023/03/11 06:58:41;;;;;;;6.33;5.73;;;;;;;0.12;87.30;95886.47;5073023;28;20220;-62
2023/03/11 07:01:15;;;;;;;5.80;5.23;;;;;;;0.12;86.70;95883.09;5074211;28;20197;-64
2023/03/11 07:03:41;;;;;;;6.70;5.47;;;;;;;0.10;86.67;95885.88;5073716;28;20219;-62
2023/03/11 07:06:20;;;;;;;6.03;5.53;;;;;;;0.53;85.75;95891.81;5073952;28;20596;-62
2023/03/11 07:08:47;;;;;;;7.30;5.47;;;;;;;0.82;83.51;95896.00;5071678;28;20209;-61
2023/03/11 07:11:15;;;;;;;4.70;4.30;;;;;;;1.21;81.57;95900.63;5073819;28;20185;-62
2023/03/11 07:13:41;;;;;;;4.80;4.30;;;;;;;1.39;80.88;95897.53;5072904;28;20198;-62
2023/03/11 07:16:14;;;;;;;7.73;4.73;;;;;;;1.34;80.21;95894.75;5073631;28;20261;-62
2023/03/11 07:18:40;;;;;;;6.57;5.83;;;;;;;1.56;79.27;95904.75;5073717;28;20208;-61
2023/03/11 07:21:07;;;;;;;5.43;5.03;;;;;;;1.80;77.96;95903.47;5072766;28;20554;-64
2023/03/11 07:23:33;;;;;;;5.40;5.07;;;;;;;1.58;78.79;95907.16;5073933;28;20212;-63
2023/03/11 07:25:59;;;;;;;8.43;7.20;;;;;;;1.27;78.57;95905.03;5055816;28;20535;-63
2023/03/11 07:28:25;;;;;;;9.63;7.67;;;;;;;1.35;78.28;95907.44;5071201;28;20315;-63
2023/03/11 07:30:52;;;;;;;9.20;8.60;;;;;;;1.05;80.05;95906.88;5073504;28;20272;-63
2023/03/11 07:33:18;;;;;;;11.27;9.37;;;;;;;1.45;79.36;95917.44;5071869;28;20185;-62
2023/03/11 07:35:44;;;;;;;9.60;9.00;;;;;;;1.51;78.16;95919.22;5073397;28;20165;-62
2023/03/11 07:38:09;;;;;;;12.33;11.07;;;;;;;1.34;78.83;95918.75;5073225;28;20269;-63
2023/03/11 07:40:35;;;;;;;11.63;10.63;;;;;;;1.53;78.25;95923.22;5074437;28;20169;-63
2023/03/11 07:43:00;;;;;;;9.47;8.73;;;;;;;1.28;78.00;95927.28;5073352;28;20291;-62
2023/03/11 07:45:26;;;;;;;8.10;7.60;;;;;;;1.22;78.04;95925.44;5073103;28;20181;-62
2023/03/11 07:47:51;;;;;;;8.30;7.70;;;;;;;1.45;77.94;95927.75;5078090;28;20254;-59
2023/03/11 07:50:18;;;;;;;6.53;5.93;;;;;;;1.60;76.75;95924.06;5074089;28;20274;-60
2023/03/11 07:52:43;;;;;;;6.37;5.87;;;;;;;1.87;75.93;95930.13;5098781;22;20787;-61
2023/03/11 07:55:09;;;;;;;6.80;5.27;;;;;;;2.08;74.72;95937.75;5053433;28;20249;-61
2023/03/11 07:57:35;;;;;;;5.37;4.87;;;;;;;1.75;74.69;95936.84;5052778;28;20285;-61
2023/03/11 08:00:01;;;;;;;8.00;4.37;;;;;;;1.71;74.91;95940.00;5052886;28;20265;-62
2023/03/11 08:02:26;;;;;;;4.70;4.30;;;;;;;1.91;76.77;95939.06;5053270;28;20170;-64
2023/03/11 08:04:52;;;;;;;8.17;4.73;;;;;;;2.09;74.34;95941.13;5053121;28;20178;-62
2023/03/11 08:07:19;;;;;;;5.17;4.70;;;;;;;2.02;74.66;95940.31;5050992;28;20194;-65
2023/03/11 08:09:45;;;;;;;5.27;4.87;;;;;;;2.29;73.03;95938.59;5050753;28;20201;-64
2023/03/11 08:12:10;;;;;;;5.03;4.63;;;;;;;2.08;72.74;95944.69;5052175;28;20631;-61
2023/03/11 08:14:36;;;;;;;4.00;3.70;;;;;;;2.31;71.58;95950.34;5053247;28;20174;-60
2023/03/11 08:17:02;;;;;;;6.97;4.40;;;;;;;2.30;72.18;95940.97;5051203;28;20247;-59
2023/03/11 08:19:28;;;;;;;8.80;5.03;;;;;;;2.58;71.43;95952.97;5052476;28;20213;-59
2023/03/11 08:21:53;;;;;;;4.37;4.07;;;;;;;2.57;70.44;95951.38;5052846;28;20189;-59
2023/03/11 08:24:19;;;;;;;4.53;3.70;;;;;;;2.68;70.33;95959.34;5053397;28;20173;-59
2023/03/11 08:26:44;;;;;;;5.47;5.07;;;;;;;2.46;69.92;95961.31;5052940;28;20241;-60
2023/03/11 08:29:09;;;;;;;6.13;5.57;;;;;;;2.32;70.77;95964.06;5052673;28;20209;-60
2023/03/11 08:31:35;;;;;;;5.30;4.80;;;;;;;2.50;71.33;95965.13;5052067;28;20186;-59
2023/03/11 08:34:04;;;;;;;5.73;5.33;;;;;;;2.73;70.13;95963.94;5052628;28;20185;-59
2023/03/11 08:36:30;;;;;;;7.00;6.43;;;;;;;2.40;67.91;95967.25;5053074;28;20185;-59
2023/03/11 08:38:56;;;;;;;6.53;6.07;;;;;;;1.95;70.46;95976.44;5052523;28;20205;-59
2023/03/11 08:41:22;;;;;;;11.13;10.23;;;;;;;1.96;71.55;95977.25;5052433;28;20249;-58
2023/03/11 08:43:47;;;;;;;9.47;8.57;;;;;;;2.08;71.31;95983.47;5051797;28;20193;-59
2023/03/11 08:46:18;;;;;;;9.23;8.73;;;;;;;2.26;69.85;95977.75;5052856;28;20186;-59
2023/03/11 08:48:43;;;;;;;12.87;12.27;;;;;;;2.38;69.72;95978.81;5052413;28;20287;-59
2023/03/11 08:51:11;;;;;;;13.27;12.17;;;;;;;2.95;68.92;95977.50;5052208;28;20224;-59
2023/03/11 08:53:36;;;;;;;9.50;7.00;;;;;;;2.97;68.53;95978.88;5068630;28;20248;-58
2023/03/11 08:56:02;;;;;;;9.13;8.07;;;;;;;2.66;68.65;95992.38;5072305;28;20169;-60
2023/03/11 08:58:28;;;;;;;9.57;8.80;;;;;;;2.53;69.05;95989.75;5072144;28;20211;-58
2023/03/11 09:00:54;;;;;;;12.50;8.73;;;;;;;2.44;69.63;95996.13;5071850;28;20185;-58
2023/03/11 09:03:20;;;;;;;13.30;12.43;;;;;;;2.64;67.80;96001.31;5071306;28;20173;-59
2023/03/11 09:05:45;;;;;;;13.67;12.80;;;;;;;2.42;68.20;95998.09;5069441;28;20250;-60
2023/03/11 09:08:10;;;;;;;11.37;10.57;;;;;;;2.35;68.43;95992.91;5071702;28;20725;-59
2023/03/11 09:11:31;;;;;;;9.63;9.10;;;;;;;2.24;68.29;95995.25;5071833;28;20177;-59
2023/03/11 09:13:56;;;;;;;9.00;8.20;;;;;;;2.12;68.44;96001.97;5069897;28;20181;-60
2023/03/11 09:16:22;;;;;;;6.67;6.07;;;;;;;1.91;70.31;96002.88;5072353;28;20648;-60
2023/03/11 09:18:48;;;;;;;5.97;5.23;;;;;;;1.59;72.62;95997.34;5072165;28;20197;-60
2023/03/11 09:21:14;;;;;;;4.90;4.53;;;;;;;1.51;72.86;96000.06;5073150;28;20216;-59
2023/03/11 09:23:39;;;;;;;6.73;5.37;;;;;;;1.88;72.55;96005.84;5075974;28;20226;-58
2023/03/11 09:26:05;;;;;;;4.10;3.73;;;;;;;2.16;72.31;96004.00;5076007;28;20536;-60
2023/03/11 09:28:31;;;;;;;4.13;3.73;;;;;;;2.59;67.99;96008.88;5075283;28;20205;-60
2023/03/11 09:30:58;;;;;;;6.53;5.93;;;;;;;2.75;66.07;96011.91;5076194;28;20170;-56
2023/03/11 09:33:23;;;;;;;6.17;5.57;;;;;;;2.77;66.66;96020.28;5076009;28;20185;-59
2023/03/11 09:35:50;;;;;;;5.23;4.67;;;;;;;2.99;65.21;96020.91;5076002;28;20189;-60
2023/03/11 09:38:15;;;;;;;5.17;4.53;;;;;;;3.07;64.85;96020.69;5075529;28;20197;-60
2023/03/11 09:41:09;;;;;;;4.77;4.23;;;;;;;3.25;65.24;96009.75;5075754;28;20192;-60
2023/03/11 09:43:50;;;;;;;7.30;4.77;;;;;;;3.69;63.38;96009.88;5075532;28;20173;-58
2023/03/11 09:46:34;;;;;;;8.00;4.67;;;;;;;2.72;65.71;96011.50;5075867;28;20636;-59
2023/03/11 09:49:02;;;;;;;5.37;4.97;;;;;;;2.42;67.08;96009.25;5075083;28;20197;-60
2023/03/11 09:51:34;;;;;;;4.67;4.10;;;;;;;2.34;66.65;96011.97;5072621;28;20181;-59
2023/03/11 09:54:09;;;;;;;5.47;4.97;;;;;;;2.29;65.53;96018.72;5075353;28;20173;-59
2023/03/11 09:56:36;;;;;;;4.73;4.23;;;;;;;2.12;65.76;96018.25;5075690;28;20502;-60
2023/03/11 09:59:26;;;;;;;5.13;4.13;;;;;;;2.54;64.19;96021.59;5075030;28;20193;-60
2023/03/11 10:01:51;;;;;;;6.20;3.83;;;;;;;2.82;63.37;96014.50;5075281;28;20173;-60
2023/03/11 10:04:25;;;;;;;5.20;4.17;;;;;;;2.94;62.21;96018.09;5075135;28;20169;-60
2023/03/11 10:06:51;;;;;;;6.53;4.93;;;;;;;3.09;60.94;96016.13;5073441;28;20591;-60
2023/03/11 10:09:58;;;;;;;6.40;5.07;;;;;;;3.65;60.86;96013.88;5075364;28;20571;-59
2023/03/11 10:13:12;;;;;;;5.87;5.33;;;;;;;3.87;60.28;96011.06;5075202;28;20188;-59
2023/03/11 10:15:53;;;;;;;4.80;4.50;;;;;;;3.07;63.92;96020.69;5013054;28;20210;-60
2023/03/11 10:18:46;;;;;;;5.60;4.47;;;;;;;2.78;64.93;96011.53;5051191;28;20293;-56
2023/03/11 10:21:50;;;;;;;5.73;5.23;;;;;;;3.39;64.86;96000.97;5074645;28;20169;-57
2023/03/11 10:24:37;;;;;;;4.43;4.13;;;;;;;4.02;59.69;96011.59;5059445;28;20599;-61
2023/03/11 10:27:12;;;;;;;4.03;3.80;;;;;;;4.49;56.32;96011.22;5075547;28;20175;-59
2023/03/11 10:29:44;;;;;;;4.23;4.00;;;;;;;4.83;51.56;96006.63;5075089;28;20193;-59
2023/03/11 10:32:19;;;;;;;6.23;5.83;;;;;;;4.54;55.11;96018.38;5074421;28;20248;-61
2023/03/11 10:35:01;;;;;;;8.83;8.17;;;;;;;4.27;58.13;96015.09;5075307;28;20177;-59
2023/03/11 10:37:31;;;;;;;6.80;6.30;;;;;;;3.96;57.04;96010.63;5074797;28;20226;-59
2023/03/11 10:40:09;;;;;;;6.60;6.20;;;;;;;3.58;59.04;96017.47;5074743;28;20173;-59
2023/03/11 10:42:35;;;;;;;5.67;5.10;;;;;;;3.49;58.45;96009.13;5074785;28;20192;-60
2023/03/11 10:45:01;;;;;;;4.07;3.77;;;;;;;3.22;59.73;96005.78;5074486;28;20185;-59
2023/03/11 10:47:28;;;;;;;5.73;4.20;;;;;;;3.11;59.06;96006.38;5074542;28;20169;-61
2023/03/11 10:49:53;;;;;;;3.87;3.60;;;;;;;3.05;58.61;96011.53;5074230;28;20255;-64
2023/03/11 10:52:19;;;;;;;4.17;3.87;;;;;;;2.89;58.15;96013.53;5070638;28;20252;-62
2023/03/11 10:54:47;;;;;;;3.80;3.40;;;;;;;2.87;58.46;96014.69;5075143;28;20260;-63
2023/03/11 10:57:21;;;;;;;5.17;4.77;;;;;;;2.64;57.98;96012.47;5074702;28;20230;-62
2023/03/11 10:59:52;;;;;;;4.73;4.23;;;;;;;2.54;58.87;96006.88;5074021;28;20244;-62
2023/03/11 11:02:37;;;;;;;4.73;4.33;;;;;;;2.84;58.56;96017.69;5069575;28;20193;-62
2023/03/11 11:05:16;;;;;;;6.33;5.83;;;;;;;2.80;58.76;96019.06;5071985;28;20637;-64
2023/03/11 11:07:44;;;;;;;5.60;5.27;;;;;;;3.05;58.10;96017.50;5073516;28;20193;-63
2023/03/11 11:10:25;;;;;;;6.40;6.10;;;;;;;3.18;57.64;96008.94;5073062;28;20200;-63
2023/03/11 11:12:55;;;;;;;6.60;5.90;;;;;;;3.38;56.91;96017.50;5067783;28;20653;-64
2023/03/11 11:15:23;;;;;;;5.43;5.17;;;;;;;3.62;56.84;96018.69;5074178;28;20173;-63
2023/03/11 11:17:49;;;;;;;6.63;4.93;;;;;;;3.60;56.25;96023.25;5074126;28;20205;-63
2023/03/11 11:20:18;;;;;;;5.47;4.90;;;;;;;3.58;54.67;96022.66;5073942;28;20656;-62
2023/03/11 11:22:55;;;;;;;5.20;4.83;;;;;;;3.92;54.84;96011.22;5073917;28;20255;-63
2023/03/11 11:25:27;;;;;;;4.50;3.97;;;;;;;3.90;53.29;96015.84;5073949;28;20176;-63
2023/03/11 11:28:13;;;;;;;4.13;3.77;;;;;;;3.76;52.79;96013.28;5079029;28;20672;-62
2023/03/11 11:30:55;;;;;;;3.67;3.47;;;;;;;4.07;52.14;96016.97;5076298;28;20626;-62
2023/03/11 11:33:28;;;;;;;3.27;3.10;;;;;;;3.93;52.31;96021.41;5073585;28;20177;-63
2023/03/11 11:35:56;;;;;;;3.20;2.93;;;;;;;4.26;52.62;96015.31;5073431;28;20197;-63
2023/03/11 11:38:23;;;;;;;4.47;3.50;;;;;;;4.38;51.22;96019.66;5072784;28;20288;-64
2023/03/11 11:40:50;;;;;;;3.60;3.40;;;;;;;3.79;52.79;96019.81;5073201;28;20205;-62
2023/03/11 11:43:20;;;;;;;3.57;3.30;;;;;;;3.73;54.34;96018.84;5073552;28;20774;-62
2023/03/11 11:45:53;;;;;;;3.50;3.30;;;;;;;3.61;55.27;96014.50;5073495;28;20276;-62
2023/03/11 11:48:19;;;;;;;3.67;3.37;;;;;;;3.57;54.78;96015.88;5072809;28;20236;-63